sensor_id;sensor_type;location;lat;lon;timestamp;temperature;humidity
29663;DHT22;16578;53.266;7.920;2022-10-13T00:01:42;13.20;69.40
29663;DHT22;16578;53.266;7.920;2022-10-13T00:04:08;13.20;69.40
29663;DHT22;16578;53.266;7.920;2022-10-13T00:06:33;13.20;69.50
29663;DHT22;16578;53.266;7.920;2022-10-13T00:08:59;13.20;69.50
29663;DHT22;16578;53.266;7.920;2022-10-13T00:11:27;13.20;69.60
29663;DHT22;16578;53.266;7.920;2022-10-13T00:13:58;13.30;69.70
29663;DHT22;16578;53.266;7.920;2022-10-13T00:16:25;13.30;69.70
29663;DHT22;16578;53.266;7.920;2022-10-13T00:18:51;13.30;69.70
29663;DHT22;16578;53.266;7.920;2022-10-13T00:21:19;13.30;69.70
29663;DHT22;16578;53.266;7.920;2022-10-13T00:23:45;13.30;69.60
29663;DHT22;16578;53.266;7.920;2022-10-13T00:26:13;13.40;69.70
29663;DHT22;16578;53.266;7.920;2022-10-13T00:28:39;13.40;69.80
29663;DHT22;16578;53.266;7.920;2022-10-13T00:31:16;13.40;69.80
29663;DHT22;16578;53.266;7.920;2022-10-13T00:33:42;13.40;70.00
29663;DHT22;16578;53.266;7.920;2022-10-13T00:36:08;13.40;70.00
29663;DHT22;16578;53.266;7.920;2022-10-13T00:38:33;13.40;70.10
29663;DHT22;16578;53.266;7.920;2022-10-13T00:40:59;13.50;70.20
29663;DHT22;16578;53.266;7.920;2022-10-13T00:43:46;13.50;70.20
29663;DHT22;16578;53.266;7.920;2022-10-13T00:46:13;13.50;70.20
29663;DHT22;16578;53.266;7.920;2022-10-13T00:48:39;13.50;70.20
29663;DHT22;16578;53.266;7.920;2022-10-13T00:51:05;13.50;70.20
29663;DHT22;16578;53.266;7.920;2022-10-13T00:53:33;13.50;70.30
29663;DHT22;16578;53.266;7.920;2022-10-13T00:56:00;13.60;70.30
29663;DHT22;16578;53.266;7.920;2022-10-13T00:58:27;13.60;70.30
29663;DHT22;16578;53.266;7.920;2022-10-13T01:00:56;13.60;70.20
29663;DHT22;16578;53.266;7.920;2022-10-13T01:03:23;13.60;70.30
29663;DHT22;16578;53.266;7.920;2022-10-13T01:05:51;13.60;70.30
29663;DHT22;16578;53.266;7.920;2022-10-13T01:08:18;13.60;70.30
29663;DHT22;16578;53.266;7.920;2022-10-13T01:10:55;13.60;70.30
29663;DHT22;16578;53.266;7.920;2022-10-13T01:13:45;13.60;70.30
29663;DHT22;16578;53.266;7.920;2022-10-13T01:16:26;13.60;70.30
29663;DHT22;16578;53.266;7.920;2022-10-13T01:19:30;13.60;70.30
29663;DHT22;16578;53.266;7.920;2022-10-13T01:28:18;13.50;70.40
29663;DHT22;16578;53.266;7.920;2022-10-13T01:30:53;13.50;70.30
29663;DHT22;16578;53.266;7.920;2022-10-13T01:38:45;13.50;70.50
29663;DHT22;16578;53.266;7.920;2022-10-13T01:44:08;13.50;70.50
29663;DHT22;16578;53.266;7.920;2022-10-13T01:46:38;13.50;70.50
29663;DHT22;16578;53.266;7.920;2022-10-13T01:49:08;13.40;70.40
29663;DHT22;16578;53.266;7.920;2022-10-13T01:51:35;13.40;70.50
29663;DHT22;16578;53.266;7.920;2022-10-13T01:54:02;13.40;70.50
29663;DHT22;16578;53.266;7.920;2022-10-13T01:56:27;13.40;70.50
29663;DHT22;16578;53.266;7.920;2022-10-13T01:58:55;13.40;70.60
29663;DHT22;16578;53.266;7.920;2022-10-13T02:07:36;13.40;70.70
29663;DHT22;16578;53.266;7.920;2022-10-13T02:15:18;13.40;70.90
29663;DHT22;16578;53.266;7.920;2022-10-13T02:17:45;13.40;70.80
29663;DHT22;16578;53.266;7.920;2022-10-13T02:20:11;13.40;70.80
29663;DHT22;16578;53.266;7.920;2022-10-13T02:22:42;13.40;70.90
29663;DHT22;16578;53.266;7.920;2022-10-13T02:25:09;13.40;70.90
29663;DHT22;16578;53.266;7.920;2022-10-13T02:27:35;13.40;71.70
29663;DHT22;16578;53.266;7.920;2022-10-13T02:30:00;13.40;70.90
29663;DHT22;16578;53.266;7.920;2022-10-13T02:32:26;13.40;70.80
29663;DHT22;16578;53.266;7.920;2022-10-13T02:34:52;13.40;70.90
29663;DHT22;16578;53.266;7.920;2022-10-13T02:37:18;13.40;70.90
29663;DHT22;16578;53.266;7.920;2022-10-13T02:39:44;13.40;70.90
29663;DHT22;16578;53.266;7.920;2022-10-13T02:42:09;13.40;71.00
29663;DHT22;16578;53.266;7.920;2022-10-13T02:44:35;13.40;70.90
29663;DHT22;16578;53.266;7.920;2022-10-13T02:47:00;13.40;70.90
29663;DHT22;16578;53.266;7.920;2022-10-13T02:49:26;13.40;71.00
29663;DHT22;16578;53.266;7.920;2022-10-13T02:51:52;13.40;71.00
29663;DHT22;16578;53.266;7.920;2022-10-13T02:54:18;13.40;70.90
29663;DHT22;16578;53.266;7.920;2022-10-13T02:56:43;13.40;70.90
29663;DHT22;16578;53.266;7.920;2022-10-13T02:59:09;13.40;70.80
29663;DHT22;16578;53.266;7.920;2022-10-13T03:01:34;13.40;70.80
29663;DHT22;16578;53.266;7.920;2022-10-13T03:04:06;13.40;70.90
29663;DHT22;16578;53.266;7.920;2022-10-13T03:06:31;13.40;70.90
29663;DHT22;16578;53.266;7.920;2022-10-13T03:08:57;13.30;70.90
29663;DHT22;16578;53.266;7.920;2022-10-13T03:11:22;13.30;70.80
29663;DHT22;16578;53.266;7.920;2022-10-13T03:13:48;13.30;70.90
29663;DHT22;16578;53.266;7.920;2022-10-13T03:16:13;13.30;70.90
29663;DHT22;16578;53.266;7.920;2022-10-13T03:18:39;13.30;71.00
29663;DHT22;16578;53.266;7.920;2022-10-13T03:21:05;13.30;70.90
29663;DHT22;16578;53.266;7.920;2022-10-13T03:23:31;13.30;70.90
29663;DHT22;16578;53.266;7.920;2022-10-13T03:25:57;13.30;71.00
29663;DHT22;16578;53.266;7.920;2022-10-13T03:28:23;13.40;71.10
29663;DHT22;16578;53.266;7.920;2022-10-13T03:30:49;13.40;71.20
29663;DHT22;16578;53.266;7.920;2022-10-13T03:33:14;13.40;71.20
29663;DHT22;16578;53.266;7.920;2022-10-13T03:35:40;13.40;71.10
29663;DHT22;16578;53.266;7.920;2022-10-13T03:38:06;13.40;71.10
29663;DHT22;16578;53.266;7.920;2022-10-13T03:40:32;13.40;71.20
29663;DHT22;16578;53.266;7.920;2022-10-13T03:42:59;13.40;71.20
29663;DHT22;16578;53.266;7.920;2022-10-13T03:45:24;13.30;71.10
29663;DHT22;16578;53.266;7.920;2022-10-13T03:47:50;13.40;71.20
29663;DHT22;16578;53.266;7.920;2022-10-13T03:50:15;13.30;71.10
29663;DHT22;16578;53.266;7.920;2022-10-13T03:52:41;13.40;71.20
29663;DHT22;16578;53.266;7.920;2022-10-13T03:55:07;13.40;71.20
29663;DHT22;16578;53.266;7.920;2022-10-13T03:57:32;13.30;71.20
29663;DHT22;16578;53.266;7.920;2022-10-13T03:59:58;13.40;71.30
29663;DHT22;16578;53.266;7.920;2022-10-13T04:02:24;13.40;71.30
29663;DHT22;16578;53.266;7.920;2022-10-13T04:04:49;13.40;71.40
29663;DHT22;16578;53.266;7.920;2022-10-13T04:07:15;13.40;71.40
29663;DHT22;16578;53.266;7.920;2022-10-13T04:09:40;13.40;71.30
29663;DHT22;16578;53.266;7.920;2022-10-13T04:12:06;13.40;71.40
29663;DHT22;16578;53.266;7.920;2022-10-13T04:14:32;13.40;71.30
29663;DHT22;16578;53.266;7.920;2022-10-13T04:16:58;13.40;71.30
29663;DHT22;16578;53.266;7.920;2022-10-13T04:19:23;13.40;71.40
29663;DHT22;16578;53.266;7.920;2022-10-13T04:21:49;13.40;71.40
29663;DHT22;16578;53.266;7.920;2022-10-13T04:24:14;13.40;71.50
29663;DHT22;16578;53.266;7.920;2022-10-13T04:26:42;13.40;71.60
29663;DHT22;16578;53.266;7.920;2022-10-13T04:29:10;13.40;71.50
29663;DHT22;16578;53.266;7.920;2022-10-13T04:31:37;13.40;71.50
29663;DHT22;16578;53.266;7.920;2022-10-13T04:34:03;13.40;71.50
29663;DHT22;16578;53.266;7.920;2022-10-13T04:36:29;13.40;71.50
29663;DHT22;16578;53.266;7.920;2022-10-13T04:38:54;13.40;71.50
29663;DHT22;16578;53.266;7.920;2022-10-13T04:41:21;13.40;71.50
29663;DHT22;16578;53.266;7.920;2022-10-13T04:43:48;13.50;71.60
29663;DHT22;16578;53.266;7.920;2022-10-13T04:46:16;13.40;71.60
29663;DHT22;16578;53.266;7.920;2022-10-13T04:48:43;13.50;71.60
29663;DHT22;16578;53.266;7.920;2022-10-13T04:51:11;13.50;71.80
29663;DHT22;16578;53.266;7.920;2022-10-13T04:53:38;13.50;72.00
29663;DHT22;16578;53.266;7.920;2022-10-13T04:56:06;13.50;72.00
29663;DHT22;16578;53.266;7.920;2022-10-13T04:58:33;13.50;72.00
29663;DHT22;16578;53.266;7.920;2022-10-13T05:00:59;13.50;72.20
29663;DHT22;16578;53.266;7.920;2022-10-13T05:03:25;13.50;72.20
29663;DHT22;16578;53.266;7.920;2022-10-13T05:05:51;13.50;72.30
29663;DHT22;16578;53.266;7.920;2022-10-13T05:08:17;13.50;72.40
29663;DHT22;16578;53.266;7.920;2022-10-13T05:10:55;13.60;72.30
29663;DHT22;16578;53.266;7.920;2022-10-13T05:13:22;13.60;72.10
29663;DHT22;16578;53.266;7.920;2022-10-13T05:15:47;13.50;72.00
29663;DHT22;16578;53.266;7.920;2022-10-13T05:18:13;13.60;72.30
29663;DHT22;16578;53.266;7.920;2022-10-13T05:20:38;13.60;72.50
29663;DHT22;16578;53.266;7.920;2022-10-13T05:23:04;13.60;72.40
29663;DHT22;16578;53.266;7.920;2022-10-13T05:25:29;13.60;72.50
29663;DHT22;16578;53.266;7.920;2022-10-13T05:27:55;13.60;72.50
29663;DHT22;16578;53.266;7.920;2022-10-13T05:30:21;13.60;72.40
29663;DHT22;16578;53.266;7.920;2022-10-13T05:32:46;13.60;72.50
29663;DHT22;16578;53.266;7.920;2022-10-13T05:35:12;13.60;72.70
29663;DHT22;16578;53.266;7.920;2022-10-13T05:37:37;13.60;72.60
29663;DHT22;16578;53.266;7.920;2022-10-13T05:40:03;13.70;72.70
29663;DHT22;16578;53.266;7.920;2022-10-13T05:42:29;13.70;72.60
29663;DHT22;16578;53.266;7.920;2022-10-13T05:44:55;13.70;72.40
29663;DHT22;16578;53.266;7.920;2022-10-13T05:47:21;13.70;72.20
29663;DHT22;16578;53.266;7.920;2022-10-13T05:49:51;13.70;72.20
29663;DHT22;16578;53.266;7.920;2022-10-13T05:52:16;13.70;72.20
29663;DHT22;16578;53.266;7.920;2022-10-13T05:54:45;13.70;72.20
29663;DHT22;16578;53.266;7.920;2022-10-13T05:57:24;13.70;72.30
29663;DHT22;16578;53.266;7.920;2022-10-13T05:59:56;13.70;72.30
29663;DHT22;16578;53.266;7.920;2022-10-13T06:02:25;13.70;72.20
29663;DHT22;16578;53.266;7.920;2022-10-13T06:04:52;13.70;72.20
29663;DHT22;16578;53.266;7.920;2022-10-13T06:07:20;13.60;72.30
29663;DHT22;16578;53.266;7.920;2022-10-13T06:09:46;13.70;72.30
29663;DHT22;16578;53.266;7.920;2022-10-13T06:12:11;13.70;72.30
29663;DHT22;16578;53.266;7.920;2022-10-13T06:14:37;13.70;72.40
29663;DHT22;16578;53.266;7.920;2022-10-13T06:17:02;13.70;72.50
29663;DHT22;16578;53.266;7.920;2022-10-13T06:19:28;13.70;72.50
29663;DHT22;16578;53.266;7.920;2022-10-13T06:21:53;13.70;72.60
29663;DHT22;16578;53.266;7.920;2022-10-13T06:24:19;13.70;72.60
29663;DHT22;16578;53.266;7.920;2022-10-13T06:26:44;13.70;72.50
29663;DHT22;16578;53.266;7.920;2022-10-13T06:29:10;13.70;72.60
29663;DHT22;16578;53.266;7.920;2022-10-13T06:31:36;13.70;72.80
29663;DHT22;16578;53.266;7.920;2022-10-13T06:34:01;13.70;72.80
29663;DHT22;16578;53.266;7.920;2022-10-13T06:36:27;13.70;72.90
29663;DHT22;16578;53.266;7.920;2022-10-13T06:38:53;13.70;72.90
29663;DHT22;16578;53.266;7.920;2022-10-13T06:41:18;13.70;72.90
29663;DHT22;16578;53.266;7.920;2022-10-13T06:43:44;13.70;73.00
29663;DHT22;16578;53.266;7.920;2022-10-13T06:46:10;13.70;73.20
29663;DHT22;16578;53.266;7.920;2022-10-13T06:48:36;13.70;73.20
29663;DHT22;16578;53.266;7.920;2022-10-13T06:51:04;13.70;73.30
29663;DHT22;16578;53.266;7.920;2022-10-13T06:53:30;13.70;73.40
29663;DHT22;16578;53.266;7.920;2022-10-13T06:56:03;13.70;73.40
29663;DHT22;16578;53.266;7.920;2022-10-13T06:58:29;13.80;73.50
29663;DHT22;16578;53.266;7.920;2022-10-13T07:00:55;13.70;73.40
29663;DHT22;16578;53.266;7.920;2022-10-13T07:03:20;13.80;73.50
29663;DHT22;16578;53.266;7.920;2022-10-13T07:05:46;13.80;73.50
29663;DHT22;16578;53.266;7.920;2022-10-13T07:08:12;13.80;73.60
29663;DHT22;16578;53.266;7.920;2022-10-13T07:10:39;13.80;73.70
29663;DHT22;16578;53.266;7.920;2022-10-13T07:13:05;13.80;73.70
29663;DHT22;16578;53.266;7.920;2022-10-13T07:15:30;13.80;73.70
29663;DHT22;16578;53.266;7.920;2022-10-13T07:17:56;13.80;73.70
29663;DHT22;16578;53.266;7.920;2022-10-13T07:20:22;13.80;73.90
29663;DHT22;16578;53.266;7.920;2022-10-13T07:22:48;13.80;74.00
29663;DHT22;16578;53.266;7.920;2022-10-13T07:25:14;13.90;74.10
29663;DHT22;16578;53.266;7.920;2022-10-13T07:27:39;13.90;74.20
29663;DHT22;16578;53.266;7.920;2022-10-13T07:30:07;13.90;74.10
29663;DHT22;16578;53.266;7.920;2022-10-13T07:32:34;13.90;74.00
29663;DHT22;16578;53.266;7.920;2022-10-13T07:34:59;13.90;74.10
29663;DHT22;16578;53.266;7.920;2022-10-13T07:37:25;13.90;74.10
29663;DHT22;16578;53.266;7.920;2022-10-13T07:39:51;14.00;74.30
29663;DHT22;16578;53.266;7.920;2022-10-13T07:42:17;14.00;74.50
29663;DHT22;16578;53.266;7.920;2022-10-13T07:44:43;14.00;74.60
29663;DHT22;16578;53.266;7.920;2022-10-13T07:47:08;14.10;74.70
29663;DHT22;16578;53.266;7.920;2022-10-13T07:49:34;14.10;74.60
29663;DHT22;16578;53.266;7.920;2022-10-13T07:52:00;14.10;74.60
29663;DHT22;16578;53.266;7.920;2022-10-13T07:54:26;14.20;74.60
29663;DHT22;16578;53.266;7.920;2022-10-13T07:56:52;14.20;74.60
29663;DHT22;16578;53.266;7.920;2022-10-13T07:59:18;14.20;74.70
29663;DHT22;16578;53.266;7.920;2022-10-13T08:01:44;14.20;74.90
29663;DHT22;16578;53.266;7.920;2022-10-13T08:04:09;14.20;74.90
29663;DHT22;16578;53.266;7.920;2022-10-13T08:06:35;14.30;75.10
29663;DHT22;16578;53.266;7.920;2022-10-13T08:09:01;14.40;75.20
29663;DHT22;16578;53.266;7.920;2022-10-13T08:11:28;14.40;75.10
29663;DHT22;16578;53.266;7.920;2022-10-13T08:13:54;14.40;74.90
29663;DHT22;16578;53.266;7.920;2022-10-13T08:16:25;14.40;74.80
29663;DHT22;16578;53.266;7.920;2022-10-13T08:18:51;14.50;74.70
29663;DHT22;16578;53.266;7.920;2022-10-13T08:21:18;14.50;74.80
29663;DHT22;16578;53.266;7.920;2022-10-13T08:23:44;14.50;74.80
29663;DHT22;16578;53.266;7.920;2022-10-13T08:26:22;14.60;74.70
29663;DHT22;16578;53.266;7.920;2022-10-13T08:28:48;14.60;74.90
29663;DHT22;16578;53.266;7.920;2022-10-13T08:31:14;14.60;74.80
29663;DHT22;16578;53.266;7.920;2022-10-13T08:33:39;14.60;74.80
29663;DHT22;16578;53.266;7.920;2022-10-13T08:36:06;14.60;74.80
29663;DHT22;16578;53.266;7.920;2022-10-13T08:38:32;14.70;74.90
29663;DHT22;16578;53.266;7.920;2022-10-13T08:40:58;14.70;74.90
29663;DHT22;16578;53.266;7.920;2022-10-13T08:43:24;14.70;74.90
29663;DHT22;16578;53.266;7.920;2022-10-13T08:45:55;14.70;74.90
29663;DHT22;16578;53.266;7.920;2022-10-13T08:48:40;14.80;75.10
29663;DHT22;16578;53.266;7.920;2022-10-13T08:51:06;14.80;75.00
29663;DHT22;16578;53.266;7.920;2022-10-13T08:53:40;14.80;75.00
29663;DHT22;16578;53.266;7.920;2022-10-13T08:56:28;14.80;75.00
29663;DHT22;16578;53.266;7.920;2022-10-13T08:58:56;14.90;75.20
29663;DHT22;16578;53.266;7.920;2022-10-13T09:01:31;14.90;75.10
29663;DHT22;16578;53.266;7.920;2022-10-13T09:06:52;15.00;75.50
29663;DHT22;16578;53.266;7.920;2022-10-13T09:09:19;15.00;75.40
29663;DHT22;16578;53.266;7.920;2022-10-13T09:11:47;15.00;75.40
29663;DHT22;16578;53.266;7.920;2022-10-13T09:16:50;15.20;75.80
29663;DHT22;16578;53.266;7.920;2022-10-13T09:19:33;15.20;75.70
29663;DHT22;16578;53.266;7.920;2022-10-13T09:22:32;15.30;75.70
29663;DHT22;16578;53.266;7.920;2022-10-13T09:27:50;15.40;75.60
29663;DHT22;16578;53.266;7.920;2022-10-13T09:30:38;15.50;75.60
29663;DHT22;16578;53.266;7.920;2022-10-13T09:33:06;15.50;75.60
29663;DHT22;16578;53.266;7.920;2022-10-13T09:35:42;15.50;75.50
29663;DHT22;16578;53.266;7.920;2022-10-13T09:38:17;15.60;75.50
29663;DHT22;16578;53.266;7.920;2022-10-13T09:41:05;15.60;75.50
29663;DHT22;16578;53.266;7.920;2022-10-13T09:46:20;15.70;75.40
29663;DHT22;16578;53.266;7.920;2022-10-13T09:48:50;15.70;75.40
29663;DHT22;16578;53.266;7.920;2022-10-13T09:54:01;15.90;75.50
29663;DHT22;16578;53.266;7.920;2022-10-13T09:56:36;15.80;75.30
29663;DHT22;16578;53.266;7.920;2022-10-13T09:59:20;15.90;75.30
29663;DHT22;16578;53.266;7.920;2022-10-13T10:01:49;15.90;75.20
29663;DHT22;16578;53.266;7.920;2022-10-13T10:04:21;15.90;75.10
29663;DHT22;16578;53.266;7.920;2022-10-13T10:06:48;15.90;75.10
29663;DHT22;16578;53.266;7.920;2022-10-13T10:09:33;15.90;75.10
29663;DHT22;16578;53.266;7.920;2022-10-13T10:12:02;16.00;75.30
29663;DHT22;16578;53.266;7.920;2022-10-13T10:14:31;16.00;75.30
29663;DHT22;16578;53.266;7.920;2022-10-13T10:20:53;16.00;75.50
29663;DHT22;16578;53.266;7.920;2022-10-13T10:23:02;16.00;75.50
29663;DHT22;16578;53.266;7.920;2022-10-13T10:25:44;16.10;75.60
29663;DHT22;16578;53.266;7.920;2022-10-13T10:36:16;16.10;75.60
29663;DHT22;16578;53.266;7.920;2022-10-13T10:38:49;16.10;75.60
29663;DHT22;16578;53.266;7.920;2022-10-13T10:41:44;16.10;75.60
29663;DHT22;16578;53.266;7.920;2022-10-13T10:44:14;16.10;75.60
29663;DHT22;16578;53.266;7.920;2022-10-13T10:46:47;16.10;75.60
29663;DHT22;16578;53.266;7.920;2022-10-13T10:49:22;16.10;75.60
29663;DHT22;16578;53.266;7.920;2022-10-13T10:51:49;16.10;75.70
29663;DHT22;16578;53.266;7.920;2022-10-13T10:54:23;16.10;75.80
29663;DHT22;16578;53.266;7.920;2022-10-13T10:56:55;16.10;75.90
29663;DHT22;16578;53.266;7.920;2022-10-13T10:59:45;16.20;75.90
29663;DHT22;16578;53.266;7.920;2022-10-13T11:04:48;16.20;75.90
29663;DHT22;16578;53.266;7.920;2022-10-13T11:15:08;16.30;76.30
29663;DHT22;16578;53.266;7.920;2022-10-13T11:17:34;16.40;76.30
29663;DHT22;16578;53.266;7.920;2022-10-13T11:30:51;16.50;76.30
29663;DHT22;16578;53.266;7.920;2022-10-13T11:33:54;16.50;76.20
29663;DHT22;16578;53.266;7.920;2022-10-13T11:36:34;16.50;76.30
29663;DHT22;16578;53.266;7.920;2022-10-13T11:42:17;16.60;76.20
29663;DHT22;16578;53.266;7.920;2022-10-13T11:45:03;16.60;76.40
29663;DHT22;16578;53.266;7.920;2022-10-13T11:52:50;16.70;76.30
29663;DHT22;16578;53.266;7.920;2022-10-13T11:55:36;16.70;76.40
29663;DHT22;16578;53.266;7.920;2022-10-13T11:58:08;16.70;76.40
29663;DHT22;16578;53.266;7.920;2022-10-13T12:00:34;16.70;76.30
29663;DHT22;16578;53.266;7.920;2022-10-13T12:03:00;16.70;76.30
29663;DHT22;16578;53.266;7.920;2022-10-13T12:05:27;16.80;76.40
29663;DHT22;16578;53.266;7.920;2022-10-13T12:08:01;16.80;76.40
29663;DHT22;16578;53.266;7.920;2022-10-13T12:10:30;16.80;76.40
29663;DHT22;16578;53.266;7.920;2022-10-13T12:12:56;16.80;76.40
29663;DHT22;16578;53.266;7.920;2022-10-13T12:15:30;16.90;76.50
29663;DHT22;16578;53.266;7.920;2022-10-13T12:17:56;16.90;76.50
29663;DHT22;16578;53.266;7.920;2022-10-13T12:20:25;16.90;76.50
29663;DHT22;16578;53.266;7.920;2022-10-13T12:22:52;16.90;76.50
29663;DHT22;16578;53.266;7.920;2022-10-13T12:25:28;17.00;76.80
29663;DHT22;16578;53.266;7.920;2022-10-13T12:27:56;17.00;76.90
29663;DHT22;16578;53.266;7.920;2022-10-13T12:30:28;17.00;76.80
29663;DHT22;16578;53.266;7.920;2022-10-13T12:32:56;17.10;76.80
29663;DHT22;16578;53.266;7.920;2022-10-13T12:35:25;17.10;76.70
29663;DHT22;16578;53.266;7.920;2022-10-13T12:37:52;17.20;76.70
29663;DHT22;16578;53.266;7.920;2022-10-13T12:40:18;17.20;76.60
29663;DHT22;16578;53.266;7.920;2022-10-13T12:42:44;17.20;76.60
29663;DHT22;16578;53.266;7.920;2022-10-13T12:45:14;17.20;76.70
29663;DHT22;16578;53.266;7.920;2022-10-13T12:53:15;17.30;77.00
29663;DHT22;16578;53.266;7.920;2022-10-13T12:55:51;17.30;76.80
29663;DHT22;16578;53.266;7.920;2022-10-13T12:58:23;17.40;76.80
29663;DHT22;16578;53.266;7.920;2022-10-13T13:03:26;17.40;76.60
29663;DHT22;16578;53.266;7.920;2022-10-13T13:08:40;17.50;76.70
29663;DHT22;16578;53.266;7.920;2022-10-13T13:11:33;17.50;76.60
29663;DHT22;16578;53.266;7.920;2022-10-13T13:14:35;17.50;76.70
29663;DHT22;16578;53.266;7.920;2022-10-13T13:17:20;17.50;76.70
29663;DHT22;16578;53.266;7.920;2022-10-13T13:19:48;17.40;76.50
29663;DHT22;16578;53.266;7.920;2022-10-13T13:22:14;17.40;76.40
29663;DHT22;16578;53.266;7.920;2022-10-13T13:24:40;17.50;76.50
29663;DHT22;16578;53.266;7.920;2022-10-13T13:27:31;17.40;76.50
29663;DHT22;16578;53.266;7.920;2022-10-13T13:29:58;17.50;76.70
29663;DHT22;16578;53.266;7.920;2022-10-13T13:32:26;17.50;76.60
29663;DHT22;16578;53.266;7.920;2022-10-13T13:34:52;17.50;76.50
29663;DHT22;16578;53.266;7.920;2022-10-13T13:39:57;17.50;76.60
29663;DHT22;16578;53.266;7.920;2022-10-13T13:42:25;17.50;76.50
29663;DHT22;16578;53.266;7.920;2022-10-13T13:44:51;17.50;76.50
29663;DHT22;16578;53.266;7.920;2022-10-13T13:47:19;17.50;76.50
29663;DHT22;16578;53.266;7.920;2022-10-13T13:49:46;17.50;76.60
29663;DHT22;16578;53.266;7.920;2022-10-13T13:52:12;17.40;76.60
29663;DHT22;16578;53.266;7.920;2022-10-13T13:54:38;17.50;76.60
29663;DHT22;16578;53.266;7.920;2022-10-13T13:57:03;17.50;76.60
29663;DHT22;16578;53.266;7.920;2022-10-13T13:59:29;17.50;76.60
29663;DHT22;16578;53.266;7.920;2022-10-13T14:01:54;17.50;76.60
29663;DHT22;16578;53.266;7.920;2022-10-13T14:04:20;17.50;76.60
29663;DHT22;16578;53.266;7.920;2022-10-13T14:06:45;17.50;76.60
29663;DHT22;16578;53.266;7.920;2022-10-13T14:09:11;17.50;76.60
29663;DHT22;16578;53.266;7.920;2022-10-13T14:11:36;17.50;76.60
29663;DHT22;16578;53.266;7.920;2022-10-13T14:14:02;17.50;76.70
29663;DHT22;16578;53.266;7.920;2022-10-13T14:16:27;17.50;76.70
29663;DHT22;16578;53.266;7.920;2022-10-13T14:18:55;17.50;76.60
29663;DHT22;16578;53.266;7.920;2022-10-13T14:21:21;17.50;76.60
29663;DHT22;16578;53.266;7.920;2022-10-13T14:23:46;17.50;76.60
29663;DHT22;16578;53.266;7.920;2022-10-13T14:26:13;17.50;76.60
29663;DHT22;16578;53.266;7.920;2022-10-13T14:28:42;17.50;76.60
29663;DHT22;16578;53.266;7.920;2022-10-13T14:31:09;17.50;76.50
29663;DHT22;16578;53.266;7.920;2022-10-13T14:33:35;17.50;76.60
29663;DHT22;16578;53.266;7.920;2022-10-13T14:36:03;17.50;76.50
29663;DHT22;16578;53.266;7.920;2022-10-13T14:38:29;17.50;76.50
29663;DHT22;16578;53.266;7.920;2022-10-13T14:41:01;17.50;76.60
29663;DHT22;16578;53.266;7.920;2022-10-13T14:43:27;17.50;76.60
29663;DHT22;16578;53.266;7.920;2022-10-13T14:45:53;17.50;76.50
29663;DHT22;16578;53.266;7.920;2022-10-13T14:48:19;17.50;76.60
29663;DHT22;16578;53.266;7.920;2022-10-13T14:50:44;17.50;76.60
29663;DHT22;16578;53.266;7.920;2022-10-13T14:53:10;17.50;76.70
29663;DHT22;16578;53.266;7.920;2022-10-13T14:55:40;17.50;76.70
29663;DHT22;16578;53.266;7.920;2022-10-13T14:58:06;17.50;76.60
29663;DHT22;16578;53.266;7.920;2022-10-13T15:00:32;17.50;76.60
29663;DHT22;16578;53.266;7.920;2022-10-13T15:02:57;17.50;76.70
29663;DHT22;16578;53.266;7.920;2022-10-13T15:05:23;17.50;76.70
29663;DHT22;16578;53.266;7.920;2022-10-13T15:07:48;17.50;76.70
29663;DHT22;16578;53.266;7.920;2022-10-13T15:10:14;17.40;76.60
29663;DHT22;16578;53.266;7.920;2022-10-13T15:12:39;17.40;76.60
29663;DHT22;16578;53.266;7.920;2022-10-13T15:15:05;17.40;76.70
29663;DHT22;16578;53.266;7.920;2022-10-13T15:17:31;17.40;76.60
29663;DHT22;16578;53.266;7.920;2022-10-13T15:19:58;17.40;76.60
29663;DHT22;16578;53.266;7.920;2022-10-13T15:22:24;17.40;76.70
29663;DHT22;16578;53.266;7.920;2022-10-13T15:24:49;17.40;76.70
29663;DHT22;16578;53.266;7.920;2022-10-13T15:27:15;17.40;76.80
29663;DHT22;16578;53.266;7.920;2022-10-13T15:29:41;17.40;76.80
29663;DHT22;16578;53.266;7.920;2022-10-13T15:32:12;17.40;76.80
29663;DHT22;16578;53.266;7.920;2022-10-13T15:34:42;17.40;76.90
29663;DHT22;16578;53.266;7.920;2022-10-13T15:37:09;17.40;76.90
29663;DHT22;16578;53.266;7.920;2022-10-13T15:39:35;17.40;77.00
29663;DHT22;16578;53.266;7.920;2022-10-13T15:42:00;17.40;77.00
29663;DHT22;16578;53.266;7.920;2022-10-13T15:44:26;17.40;77.00
29663;DHT22;16578;53.266;7.920;2022-10-13T15:46:52;17.30;77.00
29663;DHT22;16578;53.266;7.920;2022-10-13T15:49:22;17.40;77.10
29663;DHT22;16578;53.266;7.920;2022-10-13T15:51:48;17.30;77.10
29663;DHT22;16578;53.266;7.920;2022-10-13T15:54:14;17.30;77.10
29663;DHT22;16578;53.266;7.920;2022-10-13T15:56:40;17.30;77.20
29663;DHT22;16578;53.266;7.920;2022-10-13T15:59:06;17.30;77.20
29663;DHT22;16578;53.266;7.920;2022-10-13T16:01:32;17.30;77.30
29663;DHT22;16578;53.266;7.920;2022-10-13T16:03:57;17.30;77.40
29663;DHT22;16578;53.266;7.920;2022-10-13T16:06:23;17.30;77.30
29663;DHT22;16578;53.266;7.920;2022-10-13T16:08:51;17.30;77.30
29663;DHT22;16578;53.266;7.920;2022-10-13T16:11:18;17.30;77.30
29663;DHT22;16578;53.266;7.920;2022-10-13T16:13:49;17.30;77.40
29663;DHT22;16578;53.266;7.920;2022-10-13T16:16:16;17.30;77.40
29663;DHT22;16578;53.266;7.920;2022-10-13T16:18:43;17.30;77.40
29663;DHT22;16578;53.266;7.920;2022-10-13T16:21:19;17.20;77.40
29663;DHT22;16578;53.266;7.920;2022-10-13T16:23:46;17.20;77.40
29663;DHT22;16578;53.266;7.920;2022-10-13T16:26:11;17.20;78.40
29663;DHT22;16578;53.266;7.920;2022-10-13T16:28:37;17.20;77.40
29663;DHT22;16578;53.266;7.920;2022-10-13T16:31:09;17.20;77.50
29663;DHT22;16578;53.266;7.920;2022-10-13T16:33:37;17.20;77.60
29663;DHT22;16578;53.266;7.920;2022-10-13T16:36:14;17.20;77.60
29663;DHT22;16578;53.266;7.920;2022-10-13T16:38:41;17.20;77.60
29663;DHT22;16578;53.266;7.920;2022-10-13T16:41:10;17.20;77.60
29663;DHT22;16578;53.266;7.920;2022-10-13T16:43:36;17.20;77.60
29663;DHT22;16578;53.266;7.920;2022-10-13T16:46:03;17.20;77.60
29663;DHT22;16578;53.266;7.920;2022-10-13T16:48:31;17.20;77.60
29663;DHT22;16578;53.266;7.920;2022-10-13T16:50:57;17.20;77.60
29663;DHT22;16578;53.266;7.920;2022-10-13T16:53:23;17.20;77.60
29663;DHT22;16578;53.266;7.920;2022-10-13T16:55:49;17.20;77.60
29663;DHT22;16578;53.266;7.920;2022-10-13T16:58:15;17.20;77.60
29663;DHT22;16578;53.266;7.920;2022-10-13T17:00:41;17.20;77.70
29663;DHT22;16578;53.266;7.920;2022-10-13T17:03:08;17.20;77.70
29663;DHT22;16578;53.266;7.920;2022-10-13T17:05:34;17.20;77.70
29663;DHT22;16578;53.266;7.920;2022-10-13T17:07:59;17.10;77.60
29663;DHT22;16578;53.266;7.920;2022-10-13T17:10:25;17.10;77.70
29663;DHT22;16578;53.266;7.920;2022-10-13T17:12:50;17.10;77.80